sensor_id;sensor_type;location;lat;lon;timestamp;pressure;altitude;pressure_sealevel;temperature;humidity
44751;BME280;30477;48.224;11.470;2023-06-14T00:01:01;95588.53;;;15.09;39.04
44751;BME280;30477;48.224;11.470;2023-06-14T00:03:29;95585.31;;;15.07;39.59
44751;BME280;30477;48.224;11.470;2023-06-14T00:05:54;95586.03;;;15.00;39.57
44751;BME280;30477;48.224;11.470;2023-06-14T00:08:19;95586.09;;;14.92;40.00
44751;BME280;30477;48.224;11.470;2023-06-14T00:10:46;95580.09;;;14.77;40.67
44751;BME280;30477;48.224;11.470;2023-06-14T00:13:11;95585.44;;;14.60;41.08
44751;BME280;30477;48.224;11.470;2023-06-14T00:15:37;95575.91;;;14.68;41.40
44751;BME280;30477;48.224;11.470;2023-06-14T00:18:03;95580.09;;;14.77;40.98
44751;BME280;30477;48.224;11.470;2023-06-14T00:20:30;95571.63;;;14.75;40.78
44751;BME280;30477;48.224;11.470;2023-06-14T00:22:56;95584.00;;;14.58;41.47
44751;BME280;30477;48.224;11.470;2023-06-14T00:25:23;95580.22;;;14.60;41.59
44751;BME280;30477;48.224;11.470;2023-06-14T00:27:49;95576.56;;;14.70;41.69
44751;BME280;30477;48.224;11.470;2023-06-14T00:30:14;95568.22;;;14.59;41.88
44751;BME280;30477;48.224;11.470;2023-06-14T00:32:40;95567.84;;;14.63;41.72
44751;BME280;30477;48.224;11.470;2023-06-14T00:35:08;95575.56;;;14.56;42.15
44751;BME280;30477;48.224;11.470;2023-06-14T00:37:33;95572.19;;;14.47;42.27
44751;BME280;30477;48.224;11.470;2023-06-14T00:39:58;95578.38;;;14.46;42.43
44751;BME280;30477;48.224;11.470;2023-06-14T00:42:25;95589.84;;;14.37;42.54
44751;BME280;30477;48.224;11.470;2023-06-14T00:44:50;95582.91;;;14.29;42.63
44751;BME280;30477;48.224;11.470;2023-06-14T00:47:16;95584.97;;;14.34;42.76
44751;BME280;30477;48.224;11.470;2023-06-14T00:49:41;95576.81;;;14.37;42.95
44751;BME280;30477;48.224;11.470;2023-06-14T00:52:07;95580.13;;;14.31;42.87
44751;BME280;30477;48.224;11.470;2023-06-14T00:54:32;95584.41;;;14.24;43.04
44751;BME280;30477;48.224;11.470;2023-06-14T00:56:58;95582.53;;;14.17;43.42
44751;BME280;30477;48.224;11.470;2023-06-14T00:59:23;95591.25;;;14.01;43.57
44751;BME280;30477;48.224;11.470;2023-06-14T01:01:48;95582.25;;;14.04;43.90
44751;BME280;30477;48.224;11.470;2023-06-14T01:04:14;95580.94;;;14.08;44.46
44751;BME280;30477;48.224;11.470;2023-06-14T01:09:37;95584.75;;;14.20;44.06
44751;BME280;30477;48.224;11.470;2023-06-14T01:12:23;95581.88;;;14.15;43.69
44751;BME280;30477;48.224;11.470;2023-06-14T01:14:50;95579.59;;;14.12;44.29
44751;BME280;30477;48.224;11.470;2023-06-14T01:17:16;95574.97;;;14.23;44.27
44751;BME280;30477;48.224;11.470;2023-06-14T01:19:43;95577.59;;;14.23;43.89
44751;BME280;30477;48.224;11.470;2023-06-14T01:22:09;95576.69;;;14.15;43.82
44751;BME280;30477;48.224;11.470;2023-06-14T01:24:35;95577.47;;;14.16;44.11
44751;BME280;30477;48.224;11.470;2023-06-14T01:27:02;95571.13;;;14.18;44.49
44751;BME280;30477;48.224;11.470;2023-06-14T01:29:29;95572.91;;;14.18;44.36
44751;BME280;30477;48.224;11.470;2023-06-14T01:31:58;95571.47;;;14.15;44.64
44751;BME280;30477;48.224;11.470;2023-06-14T01:34:25;95568.94;;;14.07;44.52
44751;BME280;30477;48.224;11.470;2023-06-14T01:36:52;95567.28;;;14.06;44.89
44751;BME280;30477;48.224;11.470;2023-06-14T01:39:20;95567.28;;;14.06;44.75
44751;BME280;30477;48.224;11.470;2023-06-14T01:41:47;95568.28;;;14.05;44.73
44751;BME280;30477;48.224;11.470;2023-06-14T01:44:14;95566.72;;;13.96;45.01
44751;BME280;30477;48.224;11.470;2023-06-14T01:46:41;95569.59;;;13.78;45.52
44751;BME280;30477;48.224;11.470;2023-06-14T01:49:07;95570.25;;;13.80;45.60
44751;BME280;30477;48.224;11.470;2023-06-14T01:51:33;95566.59;;;13.89;45.41
44751;BME280;30477;48.224;11.470;2023-06-14T01:53:58;95567.22;;;13.91;45.71
44751;BME280;30477;48.224;11.470;2023-06-14T01:56:25;95565.22;;;13.78;45.74
44751;BME280;30477;48.224;11.470;2023-06-14T01:58:51;95565.09;;;13.72;46.09
44751;BME280;30477;48.224;11.470;2023-06-14T02:01:18;95570.22;;;13.57;46.21
44751;BME280;30477;48.224;11.470;2023-06-14T02:03:44;95567.31;;;13.44;46.30
44751;BME280;30477;48.224;11.470;2023-06-14T02:06:10;95570.97;;;13.26;46.76
44751;BME280;30477;48.224;11.470;2023-06-14T02:08:36;95564.97;;;13.26;47.17
44751;BME280;30477;48.224;11.470;2023-06-14T02:11:01;95571.94;;;13.33;47.10
44751;BME280;30477;48.224;11.470;2023-06-14T02:13:26;95566.00;;;13.48;47.08
44751;BME280;30477;48.224;11.470;2023-06-14T02:15:52;95563.38;;;13.56;47.06
44751;BME280;30477;48.224;11.470;2023-06-14T02:18:20;95566.16;;;13.54;47.28
44751;BME280;30477;48.224;11.470;2023-06-14T02:20:45;95566.31;;;13.53;47.63
44751;BME280;30477;48.224;11.470;2023-06-14T02:23:10;95566.16;;;13.54;47.81
44751;BME280;30477;48.224;11.470;2023-06-14T02:25:36;95560.44;;;13.59;47.91
44751;BME280;30477;48.224;11.470;2023-06-14T02:28:01;95564.38;;;13.55;48.40
44751;BME280;30477;48.224;11.470;2023-06-14T02:30:27;95559.16;;;13.55;48.53
44751;BME280;30477;48.224;11.470;2023-06-14T02:32:52;95558.22;;;13.48;48.26
44751;BME280;30477;48.224;11.470;2023-06-14T02:35:18;95567.66;;;13.49;48.53
44751;BME280;30477;48.224;11.470;2023-06-14T02:37:45;95565.53;;;13.52;48.54
44751;BME280;30477;48.224;11.470;2023-06-14T02:40:11;95564.25;;;13.48;48.59
44751;BME280;30477;48.224;11.470;2023-06-14T02:42:36;95565.72;;;13.43;48.74
44751;BME280;30477;48.224;11.470;2023-06-14T02:45:02;95564.47;;;13.30;48.84
44751;BME280;30477;48.224;11.470;2023-06-14T02:47:29;95561.88;;;13.30;48.96
44751;BME280;30477;48.224;11.470;2023-06-14T02:49:55;95563.75;;;13.45;48.71
44751;BME280;30477;48.224;11.470;2023-06-14T02:52:20;95565.56;;;13.44;48.88
44751;BME280;30477;48.224;11.470;2023-06-14T02:54:46;95566.00;;;13.48;48.93
44751;BME280;30477;48.224;11.470;2023-06-14T02:57:12;95566.03;;;13.39;49.01
44751;BME280;30477;48.224;11.470;2023-06-14T02:59:37;95565.13;;;13.32;49.44
44751;BME280;30477;48.224;11.470;2023-06-14T03:02:03;95569.69;;;13.14;49.48
44751;BME280;30477;48.224;11.470;2023-06-14T03:04:28;95572.34;;;12.97;49.95
44751;BME280;30477;48.224;11.470;2023-06-14T03:06:54;95573.69;;;12.85;50.20
44751;BME280;30477;48.224;11.470;2023-06-14T03:09:20;95574.28;;;12.95;49.84
44751;BME280;30477;48.224;11.470;2023-06-14T03:11:45;95572.03;;;13.00;49.77
44751;BME280;30477;48.224;11.470;2023-06-14T03:14:10;95571.38;;;13.07;50.02
44751;BME280;30477;48.224;11.470;2023-06-14T03:16:36;95572.78;;;13.17;50.09
44751;BME280;30477;48.224;11.470;2023-06-14T03:19:02;95573.28;;;13.29;50.00
44751;BME280;30477;48.224;11.470;2023-06-14T03:21:27;95578.59;;;13.28;49.80
44751;BME280;30477;48.224;11.470;2023-06-14T03:23:53;95579.28;;;13.13;50.05
44751;BME280;30477;48.224;11.470;2023-06-14T03:26:19;95593.78;;;12.91;50.64
44751;BME280;30477;48.224;11.470;2023-06-14T03:28:45;95592.88;;;12.51;50.89
44751;BME280;30477;48.224;11.470;2023-06-14T03:31:11;95594.84;;;12.25;51.19
44751;BME280;30477;48.224;11.470;2023-06-14T03:33:37;95597.44;;;12.16;51.87
44751;BME280;30477;48.224;11.470;2023-06-14T03:36:02;95599.22;;;12.32;52.16
44751;BME280;30477;48.224;11.470;2023-06-14T03:38:28;95600.00;;;12.49;52.41
44751;BME280;30477;48.224;11.470;2023-06-14T03:40:53;95598.41;;;12.48;52.08
44751;BME280;30477;48.224;11.470;2023-06-14T03:43:19;95600.34;;;12.63;52.75
44751;BME280;30477;48.224;11.470;2023-06-14T03:45:44;95608.44;;;12.76;52.48
44751;BME280;30477;48.224;11.470;2023-06-14T03:48:09;95598.38;;;12.81;52.83
44751;BME280;30477;48.224;11.470;2023-06-14T03:50:35;95599.97;;;12.90;52.68
44751;BME280;30477;48.224;11.470;2023-06-14T03:53:06;95601.56;;;12.91;52.32
44751;BME280;30477;48.224;11.470;2023-06-14T03:55:31;95609.22;;;12.85;52.45
44751;BME280;30477;48.224;11.470;2023-06-14T03:57:58;95608.06;;;12.95;52.50
44751;BME280;30477;48.224;11.470;2023-06-14T04:00:24;95604.19;;;12.91;52.26
44751;BME280;30477;48.224;11.470;2023-06-14T04:02:49;95614.56;;;12.91;52.64
44751;BME280;30477;48.224;11.470;2023-06-14T04:05:14;95613.25;;;13.04;52.55
44751;BME280;30477;48.224;11.470;2023-06-14T04:07:47;95620.22;;;13.11;52.52
44751;BME280;30477;48.224;11.470;2023-06-14T04:10:15;95628.47;;;13.23;52.39
44751;BME280;30477;48.224;11.470;2023-06-14T04:12:41;95616.25;;;13.48;52.27
44751;BME280;30477;48.224;11.470;2023-06-14T04:15:07;95626.34;;;13.74;52.01
44751;BME280;30477;48.224;11.470;2023-06-14T04:17:34;95621.66;;;14.01;51.16
44751;BME280;30477;48.224;11.470;2023-06-14T04:20:00;95629.06;;;14.35;50.65
44751;BME280;30477;48.224;11.470;2023-06-14T04:22:26;95632.25;;;14.69;49.70
44751;BME280;30477;48.224;11.470;2023-06-14T04:24:54;95629.38;;;15.01;48.93
44751;BME280;30477;48.224;11.470;2023-06-14T04:27:22;95633.16;;;15.29;48.23
44751;BME280;30477;48.224;11.470;2023-06-14T04:29:54;95628.44;;;15.54;47.73
44751;BME280;30477;48.224;11.470;2023-06-14T04:32:28;95634.75;;;15.74;46.41
44751;BME280;30477;48.224;11.470;2023-06-14T04:34:57;95628.81;;;15.80;45.58
44751;BME280;30477;48.224;11.470;2023-06-14T04:37:24;95628.59;;;15.97;44.85
44751;BME280;30477;48.224;11.470;2023-06-14T04:39:49;95636.63;;;15.80;44.72
44751;BME280;30477;48.224;11.470;2023-06-14T04:42:15;95630.94;;;15.92;45.06
44751;BME280;30477;48.224;11.470;2023-06-14T04:44:44;95632.16;;;16.32;43.46
44751;BME280;30477;48.224;11.470;2023-06-14T04:47:10;95636.88;;;16.65;42.99
44751;BME280;30477;48.224;11.470;2023-06-14T04:49:37;95635.84;;;16.81;42.70
44751;BME280;30477;48.224;11.470;2023-06-14T04:52:03;95631.78;;;17.07;42.34
44751;BME280;30477;48.224;11.470;2023-06-14T04:54:29;95639.09;;;17.53;41.51
44751;BME280;30477;48.224;11.470;2023-06-14T04:56:56;95644.16;;;17.96;40.43
44751;BME280;30477;48.224;11.470;2023-06-14T04:59:22;95647.06;;;18.21;40.84
44751;BME280;30477;48.224;11.470;2023-06-14T05:01:49;95644.28;;;18.62;39.42
44751;BME280;30477;48.224;11.470;2023-06-14T05:04:15;95648.34;;;18.58;38.86
44751;BME280;30477;48.224;11.470;2023-06-14T05:06:44;95649.13;;;18.52;38.40
44751;BME280;30477;48.224;11.470;2023-06-14T05:09:13;95647.56;;;18.91;38.79
44751;BME280;30477;48.224;11.470;2023-06-14T05:11:39;95638.19;;;19.42;37.94
44751;BME280;30477;48.224;11.470;2023-06-14T05:14:05;95645.81;;;19.57;37.36
44751;BME280;30477;48.224;11.470;2023-06-14T05:16:31;95645.00;;;20.21;37.28
44751;BME280;30477;48.224;11.470;2023-06-14T05:18:56;95646.03;;;20.52;36.84
44751;BME280;30477;48.224;11.470;2023-06-14T05:21:22;95655.38;;;20.80;35.80
44751;BME280;30477;48.224;11.470;2023-06-14T05:23:47;95650.56;;;20.77;35.55
44751;BME280;30477;48.224;11.470;2023-06-14T05:26:13;95655.97;;;21.07;35.06
44751;BME280;30477;48.224;11.470;2023-06-14T05:28:38;95659.50;;;21.63;35.17
44751;BME280;30477;48.224;11.470;2023-06-14T05:31:03;95669.88;;;21.95;34.37
44751;BME280;30477;48.224;11.470;2023-06-14T05:33:29;95668.38;;;22.17;34.03
44751;BME280;30477;48.224;11.470;2023-06-14T05:35:54;95660.81;;;22.39;33.00
44751;BME280;30477;48.224;11.470;2023-06-14T05:38:20;95667.06;;;22.45;32.67
44751;BME280;30477;48.224;11.470;2023-06-14T05:40:45;95660.41;;;22.54;32.78
44751;BME280;30477;48.224;11.470;2023-06-14T05:43:11;95664.44;;;22.57;32.28
44751;BME280;30477;48.224;11.470;2023-06-14T05:45:36;95664.22;;;23.12;32.37
44751;BME280;30477;48.224;11.470;2023-06-14T05:48:01;95659.31;;;23.39;31.83
44751;BME280;30477;48.224;11.470;2023-06-14T05:50:26;95658.09;;;23.70;31.44
44751;BME280;30477;48.224;11.470;2023-06-14T05:52:53;95655.00;;;23.62;30.72
44751;BME280;30477;48.224;11.470;2023-06-14T05:55:18;95659.72;;;23.60;30.77
44751;BME280;30477;48.224;11.470;2023-06-14T05:57:44;95657.03;;;23.95;30.44
44751;BME280;30477;48.224;11.470;2023-06-14T06:00:09;95650.66;;;24.20;30.38
44751;BME280;30477;48.224;11.470;2023-06-14T06:02:42;95650.38;;;24.79;30.10
44751;BME280;30477;48.224;11.470;2023-06-14T06:05:11;95645.66;;;24.98;28.96
44751;BME280;30477;48.224;11.470;2023-06-14T06:07:38;95659.03;;;24.57;28.57
44751;BME280;30477;48.224;11.470;2023-06-14T06:10:05;95650.44;;;24.84;28.51
44751;BME280;30477;48.224;11.470;2023-06-14T06:12:31;95660.88;;;24.74;28.89
44751;BME280;30477;48.224;11.470;2023-06-14T06:14:56;95662.50;;;25.08;28.55
44751;BME280;30477;48.224;11.470;2023-06-14T06:17:22;95667.16;;;25.01;27.61
44751;BME280;30477;48.224;11.470;2023-06-14T06:19:47;95663.94;;;24.99;28.34
44751;BME280;30477;48.224;11.470;2023-06-14T06:22:12;95657.59;;;25.00;28.26
44751;BME280;30477;48.224;11.470;2023-06-14T06:24:37;95666.50;;;25.28;28.23
44751;BME280;30477;48.224;11.470;2023-06-14T06:27:03;95669.81;;;24.84;28.40
44751;BME280;30477;48.224;11.470;2023-06-14T06:29:29;95669.47;;;24.81;27.88
44751;BME280;30477;48.224;11.470;2023-06-14T06:31:54;95676.06;;;24.95;27.77
44751;BME280;30477;48.224;11.470;2023-06-14T06:34:21;95679.66;;;24.72;27.91
44751;BME280;30477;48.224;11.470;2023-06-14T06:36:46;95684.16;;;24.71;28.31
44751;BME280;30477;48.224;11.470;2023-06-14T06:39:12;95678.34;;;25.59;27.25
44751;BME280;30477;48.224;11.470;2023-06-14T06:41:38;95672.44;;;26.13;26.89
44751;BME280;30477;48.224;11.470;2023-06-14T06:44:05;95675.94;;;27.00;26.35
44751;BME280;30477;48.224;11.470;2023-06-14T06:46:32;95671.97;;;26.98;25.56
44751;BME280;30477;48.224;11.470;2023-06-14T06:48:57;95676.34;;;26.32;26.02
44751;BME280;30477;48.224;11.470;2023-06-14T06:51:22;95680.66;;;25.89;26.55
44751;BME280;30477;48.224;11.470;2023-06-14T06:53:52;95686.75;;;26.12;25.84
44751;BME280;30477;48.224;11.470;2023-06-14T06:56:18;95690.13;;;26.29;26.04
44751;BME280;30477;48.224;11.470;2023-06-14T06:58:44;95687.34;;;26.96;25.95
44751;BME280;30477;48.224;11.470;2023-06-14T07:01:09;95685.34;;;26.04;25.82
44751;BME280;30477;48.224;11.470;2023-06-14T07:03:35;95679.19;;;26.75;25.18
44751;BME280;30477;48.224;11.470;2023-06-14T07:06:00;95683.47;;;27.08;24.90
44751;BME280;30477;48.224;11.470;2023-06-14T07:08:26;95681.59;;;27.41;24.90
44751;BME280;30477;48.224;11.470;2023-06-14T07:10:52;95676.84;;;27.48;24.88
44751;BME280;30477;48.224;11.470;2023-06-14T07:13:17;95682.63;;;27.35;24.85
44751;BME280;30477;48.224;11.470;2023-06-14T07:15:43;95687.66;;;26.99;24.60
44751;BME280;30477;48.224;11.470;2023-06-14T07:18:08;95689.34;;;26.56;24.47
44751;BME280;30477;48.224;11.470;2023-06-14T07:20:34;95691.88;;;27.00;24.96
44751;BME280;30477;48.224;11.470;2023-06-14T07:22:59;95691.41;;;27.03;24.90
44751;BME280;30477;48.224;11.470;2023-06-14T07:25:25;95698.13;;;27.48;25.37
44751;BME280;30477;48.224;11.470;2023-06-14T07:27:51;95692.97;;;27.74;24.66
44751;BME280;30477;48.224;11.470;2023-06-14T07:30:16;95697.66;;;28.09;24.55
44751;BME280;30477;48.224;11.470;2023-06-14T07:32:42;95702.59;;;27.85;24.28
44751;BME280;30477;48.224;11.470;2023-06-14T07:35:07;95702.31;;;27.82;24.69
44751;BME280;30477;48.224;11.470;2023-06-14T07:37:33;95703.19;;;27.92;24.30
44751;BME280;30477;48.224;11.470;2023-06-14T07:39:58;95698.41;;;27.47;24.91
44751;BME280;30477;48.224;11.470;2023-06-14T07:42:24;95705.75;;;27.77;23.81
44751;BME280;30477;48.224;11.470;2023-06-14T07:44:49;95697.50;;;28.31;24.51
44751;BME280;30477;48.224;11.470;2023-06-14T07:47:16;95702.69;;;27.96;23.04
44751;BME280;30477;48.224;11.470;2023-06-14T07:49:41;95702.59;;;27.10;23.77
44751;BME280;30477;48.224;11.470;2023-06-14T07:52:06;95699.84;;;27.27;24.51
44751;BME280;30477;48.224;11.470;2023-06-14T07:54:32;95703.44;;;27.16;24.31
44751;BME280;30477;48.224;11.470;2023-06-14T07:56:57;95702.50;;;27.00;24.63
44751;BME280;30477;48.224;11.470;2023-06-14T07:59:25;95702.59;;;27.10;24.31
44751;BME280;30477;48.224;11.470;2023-06-14T08:01:50;95703.81;;;27.25;24.51
44751;BME280;30477;48.224;11.470;2023-06-14T08:04:16;95709.22;;;27.35;24.13
44751;BME280;30477;48.224;11.470;2023-06-14T08:06:41;95709.34;;;26.91;24.57
44751;BME280;30477;48.224;11.470;2023-06-14T08:09:10;95701.38;;;26.91;24.07
44751;BME280;30477;48.224;11.470;2023-06-14T08:11:36;95696.53;;;27.47;23.52
44751;BME280;30477;48.224;11.470;2023-06-14T08:14:02;95704.47;;;27.85;23.91
44751;BME280;30477;48.224;11.470;2023-06-14T08:16:27;95701.91;;;27.58;23.40
44751;BME280;30477;48.224;11.470;2023-06-14T08:18:52;95707.56;;;26.69;23.28
44751;BME280;30477;48.224;11.470;2023-06-14T08:21:18;95708.16;;;26.77;23.66
44751;BME280;30477;48.224;11.470;2023-06-14T08:23:43;95698.41;;;27.52;23.12
44751;BME280;30477;48.224;11.470;2023-06-14T08:26:09;95710.22;;;27.66;21.79
44751;BME280;30477;48.224;11.470;2023-06-14T08:28:35;95718.66;;;26.93;22.64
44751;BME280;30477;48.224;11.470;2023-06-14T08:31:00;95710.75;;;27.26;22.46
44751;BME280;30477;48.224;11.470;2023-06-14T08:33:26;95710.38;;;27.54;21.57
44751;BME280;30477;48.224;11.470;2023-06-14T08:35:52;95714.44;;;27.25;21.91
44751;BME280;30477;48.224;11.470;2023-06-14T08:38:17;95726.16;;;26.69;22.23
44751;BME280;30477;48.224;11.470;2023-06-14T08:40:43;95726.84;;;26.87;22.48
44751;BME280;30477;48.224;11.470;2023-06-14T08:43:10;95717.47;;;26.79;22.25
44751;BME280;30477;48.224;11.470;2023-06-14T08:45:35;95721.78;;;26.85;21.86
44751;BME280;30477;48.224;11.470;2023-06-14T08:48:01;95721.81;;;27.18;22.02
44751;BME280;30477;48.224;11.470;2023-06-14T08:50:32;95725.72;;;27.42;21.20
44751;BME280;30477;48.224;11.470;2023-06-14T08:53:00;95732.19;;;26.92;21.09
44751;BME280;30477;48.224;11.470;2023-06-14T08:55:27;95730.81;;;27.17;21.04
44751;BME280;30477;48.224;11.470;2023-06-14T08:57:54;95730.06;;;26.89;22.02
44751;BME280;30477;48.224;11.470;2023-06-14T09:00:19;95740.97;;;26.65;21.07
44751;BME280;30477;48.224;11.470;2023-06-14T09:02:46;95726.47;;;27.05;20.90
44751;BME280;30477;48.224;11.470;2023-06-14T09:05:12;95716.38;;;27.77;20.86
44751;BME280;30477;48.224;11.470;2023-06-14T09:07:43;95716.09;;;27.04;21.85
44751;BME280;30477;48.224;11.470;2023-06-14T09:10:13;95729.06;;;26.46;22.49
44751;BME280;30477;48.224;11.470;2023-06-14T09:12:38;95722.72;;;26.52;22.51
44751;BME280;30477;48.224;11.470;2023-06-14T09:15:07;95719.88;;;26.81;22.65
44751;BME280;30477;48.224;11.470;2023-06-14T09:17:37;95721.63;;;27.62;22.03
44751;BME280;30477;48.224;11.470;2023-06-14T09:20:09;95718.53;;;26.78;21.87
44751;BME280;30477;48.224;11.470;2023-06-14T09:22:36;95731.25;;;26.76;22.95
44751;BME280;30477;48.224;11.470;2023-06-14T09:25:03;95728.03;;;27.01;22.99
44751;BME280;30477;48.224;11.470;2023-06-14T09:27:29;95721.94;;;27.70;23.57
44751;BME280;30477;48.224;11.470;2023-06-14T09:29:55;95731.78;;;27.05;22.11
44751;BME280;30477;48.224;11.470;2023-06-14T09:32:21;95737.63;;;26.09;22.30
44751;BME280;30477;48.224;11.470;2023-06-14T09:34:47;95738.63;;;25.86;23.00
44751;BME280;30477;48.224;11.470;2023-06-14T09:37:12;95729.31;;;25.83;22.76
44751;BME280;30477;48.224;11.470;2023-06-14T09:39:50;95729.63;;;26.26;23.17
44751;BME280;30477;48.224;11.470;2023-06-14T09:42:16;95732.81;;;26.99;23.16
44751;BME280;30477;48.224;11.470;2023-06-14T09:44:48;95735.53;;;27.37;22.09
44751;BME280;30477;48.224;11.470;2023-06-14T09:47:18;95749.09;;;26.37;22.87
44751;BME280;30477;48.224;11.470;2023-06-14T09:49:43;95744.53;;;25.71;23.12
44751;BME280;30477;48.224;11.470;2023-06-14T09:52:15;95747.25;;;25.59;23.81
44751;BME280;30477;48.224;11.470;2023-06-14T09:54:42;95742.78;;;25.43;23.35
44751;BME280;30477;48.224;11.470;2023-06-14T09:57:10;95744.97;;;25.29;23.76
44751;BME280;30477;48.224;11.470;2023-06-14T09:59:43;95745.41;;;24.63;24.65
44751;BME280;30477;48.224;11.470;2023-06-14T10:04:53;95751.41;;;24.47;24.47
44751;BME280;30477;48.224;11.470;2023-06-14T10:07:20;95748.44;;;24.31;25.24
44751;BME280;30477;48.224;11.470;2023-06-14T10:09:47;95737.09;;;24.71;24.98
44751;BME280;30477;48.224;11.470;2023-06-14T10:12:16;95746.53;;;24.67;24.83
44751;BME280;30477;48.224;11.470;2023-06-14T10:14:48;95747.50;;;24.38;24.53
44751;BME280;30477;48.224;11.470;2023-06-14T10:17:22;95742.69;;;24.35;24.44
44751;BME280;30477;48.224;11.470;2023-06-14T10:22:47;95740.38;;;24.50;25.63
44751;BME280;30477;48.224;11.470;2023-06-14T10:25:27;95736.06;;;24.20;25.56
44751;BME280;30477;48.224;11.470;2023-06-14T10:28:20;95745.97;;;24.13;25.15
44751;BME280;30477;48.224;11.470;2023-06-14T10:31:06;95743.69;;;24.05;24.74
44751;BME280;30477;48.224;11.470;2023-06-14T10:33:34;95745.31;;;23.82;24.40
44751;BME280;30477;48.224;11.470;2023-06-14T10:36:25;95748.53;;;23.37;25.01
44751;BME280;30477;48.224;11.470;2023-06-14T10:41:39;95738.31;;;23.76;24.91
44751;BME280;30477;48.224;11.470;2023-06-14T10:46:46;95736.34;;;23.60;25.00
44751;BME280;30477;48.224;11.470;2023-06-14T10:49:12;95738.88;;;23.55;25.62
44751;BME280;30477;48.224;11.470;2023-06-14T10:51:38;95729.81;;;23.50;26.17
44751;BME280;30477;48.224;11.470;2023-06-14T10:54:12;95728.97;;;23.62;27.23
44751;BME280;30477;48.224;11.470;2023-06-14T10:56:53;95737.38;;;23.59;26.79
44751;BME280;30477;48.224;11.470;2023-06-14T10:59:20;95741.50;;;23.43;27.31
44751;BME280;30477;48.224;11.470;2023-06-14T11:04:11;95734.25;;;22.84;27.08
44751;BME280;30477;48.224;11.470;2023-06-14T11:07:02;95733.44;;;22.72;27.02
44751;BME280;30477;48.224;11.470;2023-06-14T11:09:51;95733.09;;;23.10;27.09
44751;BME280;30477;48.224;11.470;2023-06-14T11:14:46;95733.81;;;22.87;26.81
44751;BME280;30477;48.224;11.470;2023-06-14T11:17:12;95733.34;;;22.79;26.73
44751;BME280;30477;48.224;11.470;2023-06-14T11:19:38;95728.44;;;22.94;26.74
44751;BME280;30477;48.224;11.470;2023-06-14T11:22:03;95727.34;;;23.14;26.78
44751;BME280;30477;48.224;11.470;2023-06-14T11:24:29;95733.69;;;23.36;26.91
44751;BME280;30477;48.224;11.470;2023-06-14T11:26:55;95746.66;;;23.14;25.64
44751;BME280;30477;48.224;11.470;2023-06-14T11:29:21;95732.03;;;22.69;25.24
44751;BME280;30477;48.224;11.470;2023-06-14T11:31:47;95736.47;;;22.99;26.06
44751;BME280;30477;48.224;11.470;2023-06-14T11:34:12;95733.53;;;23.07;27.09
44751;BME280;30477;48.224;11.470;2023-06-14T11:36:38;95732.44;;;22.97;27.76
44751;BME280;30477;48.224;11.470;2023-06-14T11:39:05;95734.97;;;22.61;28.39
44751;BME280;30477;48.224;11.470;2023-06-14T11:41:45;95739.19;;;22.50;28.38
44751;BME280;30477;48.224;11.470;2023-06-14T11:44:10;95732.91;;;22.33;26.31
44751;BME280;30477;48.224;11.470;2023-06-14T11:46:36;95717.19;;;22.26;26.38
44751;BME280;30477;48.224;11.470;2023-06-14T11:49:02;95719.25;;;22.55;28.08
44751;BME280;30477;48.224;11.470;2023-06-14T11:51:31;95714.75;;;22.85;28.28
44751;BME280;30477;48.224;11.470;2023-06-14T11:53:57;95715.03;;;23.07;28.04
44751;BME280;30477;48.224;11.470;2023-06-14T11:56:23;95711.97;;;23.22;27.82
44751;BME280;30477;48.224;11.470;2023-06-14T11:58:48;95712.66;;;23.41;28.08
44751;BME280;30477;48.224;11.470;2023-06-14T12:01:18;95713.59;;;23.47;27.54
44751;BME280;30477;48.224;11.470;2023-06-14T12:03:50;95715.88;;;23.43;27.32
44751;BME280;30477;48.224;11.470;2023-06-14T12:06:16;95715.44;;;23.46;27.01
44751;BME280;30477;48.224;11.470;2023-06-14T12:08:43;95713.63;;;23.35;26.68
44751;BME280;30477;48.224;11.470;2023-06-14T12:11:11;95718.41;;;23.15;26.55
44751;BME280;30477;48.224;11.470;2023-06-14T12:13:42;95711.97;;;23.10;26.64
44751;BME280;30477;48.224;11.470;2023-06-14T12:16:09;95715.19;;;23.36;27.49
44751;BME280;30477;48.224;11.470;2023-06-14T12:18:35;95712.81;;;23.46;27.92
44751;BME280;30477;48.224;11.470;2023-06-14T12:21:03;95720.00;;;23.16;27.49
44751;BME280;30477;48.224;11.470;2023-06-14T12:23:46;95712.94;;;22.98;27.96
44751;BME280;30477;48.224;11.470;2023-06-14T12:26:13;95722.31;;;23.12;28.22
44751;BME280;30477;48.224;11.470;2023-06-14T12:28:40;95715.28;;;23.18;27.56
44751;BME280;30477;48.224;11.470;2023-06-14T12:31:07;95714.03;;;23.08;27.85
44751;BME280;30477;48.224;11.470;2023-06-14T12:33:32;95717.03;;;23.12;27.57
44751;BME280;30477;48.224;11.470;2023-06-14T12:35:58;95719.75;;;23.05;27.24
44751;BME280;30477;48.224;11.470;2023-06-14T12:38:24;95712.13;;;22.97;27.63
44751;BME280;30477;48.224;11.470;2023-06-14T12:40:49;95710.81;;;23.06;27.88
44751;BME280;30477;48.224;11.470;2023-06-14T12:43:15;95705.84;;;22.98;28.12
44751;BME280;30477;48.224;11.470;2023-06-14T12:45:40;95712.41;;;23.07;28.11
44751;BME280;30477;48.224;11.470;2023-06-14T12:48:05;95710.84;;;23.18;28.69
44751;BME280;30477;48.224;11.470;2023-06-14T12:50:30;95710.84;;;23.30;28.72
44751;BME280;30477;48.224;11.470;2023-06-14T12:52:56;95716.72;;;22.90;27.98
44751;BME280;30477;48.224;11.470;2023-06-14T12:55:21;95712.06;;;22.74;28.12
44751;BME280;30477;48.224;11.470;2023-06-14T12:57:46;95724.97;;;22.52;27.97
44751;BME280;30477;48.224;11.470;2023-06-14T13:00:15;95727.28;;;22.29;28.02
44751;BME280;30477;48.224;11.470;2023-06-14T13:02:40;95718.25;;;22.37;28.33
44751;BME280;30477;48.224;11.470;2023-06-14T13:05:06;95728.19;;;22.54;28.18
44751;BME280;30477;48.224;11.470;2023-06-14T13:07:31;95729.88;;;22.48;28.09